Oscoda, Michigan
Current Conditions -  °F | °C
As of 10:34 AM on Thursday 30 Oct 2014 (Local Time) from KOSC Reporting Station
Overcast Overcast  
Wind Chill: 32°   Ceiling: 3600
Heat Index: 38°   Visibility: 10mi
Dew Point: 35°   Wind: 8mph
Humidity: 87%   Direction: 250°WSW
Pressure: 30.12"   Gusts: NA
Location:  44.42°N, 83.33°W
Report Text: KOSC 301434Z AUTO 25007KT 10SM BKN036 OVC042 03/01 A3012 RMK AO2 T00350015
Loading
Personal Weather Stations






























Interactive Weather Map
Tropical Storm Tracking
New forecast layout! Learn more

10-Day Weather Forecast

Advertisements
Track Severe Weather on mobile